Aérodrome :
LOGIN :

S'inscrire | Disclaimer

   EN    FR    IT 

 










Légende :    VFR   VFR Marginal   IFR   IFR Intensif   IFR Très Intensif
Visi : 
Plafond : 
>= 8 km
>= 3000ft
5 à 8 km
1000 à 3000 ft
1500m à 5 km
500 à 1000 ft
800 à 1500m
200 à 500 ft
< 800m
< 200 ft
Symboles :   Orages  Brouillard  Fortes neiges  Fortes précipitations  Vent > 20 kt
SIGMETs :   Divers  Orages  Givrage  Turbulence  Onde Orograph.  Cendres Volcan.







- Altitude de l'aérodrome : 96 ft
- Code IATA : REG


LICR - Reggio Calabria

DERNIER METAR :
  • 241350Z 20011KT 9999 SCT050 26/16 Q1014

METARs EXPIRÉS :
  • 241250Z 21011KT 180V240 9999 SCT050 27/16 Q1015
  • 241150Z 21009KT 180V250 9999 SCT050 27/16 Q1015

TAF TAF LICR
Valide du 24 à 12h jusqu'au 25 à 12h UTC


241100Z 2412/2512 17010KT 9999 SCT025
BECMG 2418/2420 VRB05KT
Pas de NOTAMs connus pour ce terrain.
1 SIGMET publié pour la FIR Roma (LIRR) :
 
Orages noyés dans la masse
LIRR SIGMET 1 VALID 241400/241600 LIIB
LIRR ROMA FIR EMBD TS FCST WI N4119 E00821 - N4101 E00801 - N3858 E00800 - N3810 E00956 - N4122 E00956 - N4119 E00821 TOP ABV FL350 STNR NC=



MET'MAP, la Météo Aéronautique d'un coup d'oeil ! - Copyright ORBIFLY Décembre 2007 - Disclaimer

ORBIFLY MET'MAP TEAM :

Programmation & Développement : Alexandra Zaïnal
Conception & Développement : Baudouin d'Aumeries
Co-Programmation & Développement : Marc-Olivier Méhu
Soutien technique & logistique : Manuel Goepfert

Contact : metmap@orbifly.com




SOURCES & CREDITS :

   NOAA